Time;durP1;ratioP1;P1;durP2;ratioP2;P2;SDS_P1;SDS_P2;PMS_P1;PMS_P2;Temp;Humidity;BMP_temperature;BMP_pressure;BME280_temperature;BME280_humidity;BME280_pressure;Samples;Min_cycle;Max_cycle;Signal;HPM_P1;HPM_P2
2021/10/07 00:00:40;;;;;;;1.30;1.20;;;20.00;57.30;;;;;;5103465;28;20231;-52
2021/10/07 00:03:11;;;;;;;1.67;1.30;;;20.10;57.20;;;;;;5113918;28;20252;-48
2021/10/07 00:05:42;;;;;;;1.38;1.27;;;20.10;57.10;;;;;;5113816;28;20395;-49
2021/10/07 00:08:12;;;;;;;1.10;0.85;;;20.10;57.00;;;;;;5113040;28;20225;-49
2021/10/07 00:10:43;;;;;;;2.55;0.95;;;20.20;57.10;;;;;;5113613;28;20221;-50
2021/10/07 00:13:14;;;;;;;1.25;1.00;;;20.20;56.50;;;;;;5101509;28;20257;-53
2021/10/07 00:15:46;;;;;;;2.05;0.90;;;20.20;56.20;;;;;;5093117;28;20646;-47
2021/10/07 00:18:17;;;;;;;1.42;0.80;;;20.20;55.60;;;;;;5090590;28;20237;-48
2021/10/07 00:20:47;;;;;;;3.25;1.08;;;20.30;55.30;;;;;;5092048;28;20204;-51
2021/10/07 00:23:20;;;;;;;2.28;0.98;;;20.40;55.10;;;;;;5091366;28;20646;-46
2021/10/07 00:25:51;;;;;;;1.08;0.70;;;20.50;55.20;;;;;;5093131;28;20307;-50
2021/10/07 00:28:21;;;;;;;1.70;0.90;;;20.50;54.60;;;;;;5093419;28;20248;-48
2021/10/07 00:30:57;;;;;;;1.63;1.05;;;20.50;54.10;;;;;;5104931;28;20194;-50
2021/10/07 00:33:32;;;;;;;0.93;0.65;;;20.60;53.60;;;;;;5113099;28;20672;-48
2021/10/07 00:36:11;;;;;;;1.35;0.73;;;20.60;53.40;;;;;;5107624;28;20185;-46
2021/10/07 00:41:27;;;;;;;1.40;0.90;;;20.70;52.60;;;;;;5106042;28;20677;-46
2021/10/07 00:43:58;;;;;;;1.45;0.70;;;20.80;52.40;;;;;;5112711;28;20649;-45
2021/10/07 00:46:30;;;;;;;1.30;0.90;;;20.90;52.10;;;;;;5103085;28;20684;-49
2021/10/07 00:49:01;;;;;;;1.50;0.88;;;20.90;51.80;;;;;;5093238;28;20225;-53
2021/10/07 00:51:32;;;;;;;1.90;0.90;;;20.90;51.50;;;;;;5086108;28;20210;-45
2021/10/07 00:54:02;;;;;;;1.20;0.70;;;20.90;51.60;;;;;;5092945;28;20230;-50
2021/10/07 00:56:33;;;;;;;1.02;0.70;;;21.00;51.60;;;;;;5091451;28;20237;-53
2021/10/07 00:59:03;;;;;;;1.23;0.80;;;21.00;51.50;;;;;;5090408;28;20194;-43
2021/10/07 01:01:35;;;;;;;2.78;0.88;;;21.00;51.40;;;;;;5110928;28;20210;-50
2021/10/07 01:04:06;;;;;;;3.28;0.90;;;21.10;51.30;;;;;;5090350;28;20233;-48
2021/10/07 01:06:36;;;;;;;2.35;0.90;;;21.20;51.10;;;;;;5090435;28;20264;-48
2021/10/07 01:09:07;;;;;;;1.55;0.65;;;21.20;51.50;;;;;;5092232;28;20638;-49
2021/10/07 01:11:37;;;;;;;1.42;0.70;;;21.20;50.90;;;;;;5095955;28;20297;-51
2021/10/07 01:14:08;;;;;;;1.90;0.70;;;21.30;51.00;;;;;;5091866;28;20382;-54
2021/10/07 01:16:40;;;;;;;1.10;0.80;;;21.30;50.60;;;;;;5092607;28;20633;-48
2021/10/07 01:19:10;;;;;;;1.50;0.65;;;21.30;50.60;;;;;;5091106;28;20240;-50
2021/10/07 01:21:43;;;;;;;2.90;0.82;;;21.30;50.30;;;;;;5110229;28;20252;-48
2021/10/07 01:24:13;;;;;;;2.85;0.88;;;21.40;50.10;;;;;;5098094;28;20226;-44
2021/10/07 01:26:44;;;;;;;1.05;0.65;;;21.40;50.00;;;;;;5091857;28;20257;-50
2021/10/07 01:29:14;;;;;;;2.30;0.80;;;21.40;50.00;;;;;;5091830;28;20273;-54
2021/10/07 01:31:44;;;;;;;1.23;0.70;;;21.40;49.80;;;;;;5098374;28;20291;-43
2021/10/07 01:34:15;;;;;;;1.75;0.70;;;21.50;50.00;;;;;;5071182;28;20286;-41
2021/10/07 01:36:47;;;;;;;0.90;0.52;;;21.50;49.80;;;;;;5071824;28;20623;-50
2021/10/07 01:39:18;;;;;;;1.60;0.70;;;21.50;49.60;;;;;;5079745;28;20752;-43
2021/10/07 01:41:48;;;;;;;1.35;0.80;;;21.60;49.60;;;;;;5111185;28;20731;-45
2021/10/07 01:44:19;;;;;;;0.75;0.60;;;21.60;49.40;;;;;;5094787;28;20272;-49
2021/10/07 01:46:50;;;;;;;1.75;0.80;;;21.60;49.20;;;;;;5111481;28;20652;-50
2021/10/07 01:49:20;;;;;;;1.10;0.55;;;21.70;49.10;;;;;;5092359;28;20228;-50
2021/10/07 01:51:52;;;;;;;2.50;0.80;;;21.70;49.10;;;;;;5091920;28;20262;-48
2021/10/07 01:54:23;;;;;;;1.67;0.80;;;21.80;49.00;;;;;;5091954;28;20241;-54
2021/10/07 01:56:53;;;;;;;1.15;0.63;;;21.80;48.90;;;;;;5091909;28;20225;-47
2021/10/07 01:59:24;;;;;;;1.00;0.70;;;21.80;48.80;;;;;;5092217;28;20607;-53
2021/10/07 02:01:54;;;;;;;1.25;0.60;;;21.90;49.00;;;;;;5092400;28;20636;-46
2021/10/07 02:04:24;;;;;;;1.27;0.70;;;21.90;49.10;;;;;;5091928;28;20684;-46
2021/10/07 02:06:57;;;;;;;1.17;0.70;;;21.90;48.80;;;;;;5091321;28;20257;-49
2021/10/07 02:09:27;;;;;;;2.13;0.90;;;22.00;48.70;;;;;;5091867;28;20281;-46
2021/10/07 02:11:58;;;;;;;1.02;0.80;;;22.00;48.50;;;;;;5091842;28;20246;-49
2021/10/07 02:14:28;;;;;;;1.25;0.70;;;22.00;48.60;;;;;;5092067;28;20245;-56
2021/10/07 02:16:58;;;;;;;0.82;0.63;;;22.00;48.70;;;;;;5086477;28;20259;-55
2021/10/07 02:19:29;;;;;;;1.85;0.80;;;22.10;48.60;;;;;;5089004;28;20664;-57
2021/10/07 02:22:03;;;;;;;1.00;0.60;;;22.10;48.50;;;;;;5087764;28;20310;-51
2021/10/07 02:24:33;;;;;;;1.75;0.70;;;22.10;48.40;;;;;;5089750;28;20271;-51
2021/10/07 02:27:04;;;;;;;1.52;0.60;;;22.20;48.10;;;;;;5070654;28;20257;-52
2021/10/07 02:29:34;;;;;;;1.60;0.80;;;22.20;48.10;;;;;;5072555;28;20214;-48
2021/10/07 02:32:05;;;;;;;1.15;0.50;;;22.20;48.00;;;;;;5091285;28;20245;-47
2021/10/07 02:34:35;;;;;;;3.25;1.00;;;22.20;48.00;;;;;;5091431;28;20229;-51
2021/10/07 02:37:10;;;;;;;1.08;0.68;;;22.30;47.70;;;;;;5077376;28;20230;-48
2021/10/07 02:39:40;;;;;;;1.05;0.60;;;22.30;47.90;;;;;;5090820;28;20212;-46
2021/10/07 02:42:14;;;;;;;1.52;0.68;;;22.30;47.90;;;;;;5089444;28;20631;-51
2021/10/07 02:44:44;;;;;;;0.93;0.52;;;22.40;47.50;;;;;;5091390;28;20658;-46
2021/10/07 02:47:15;;;;;;;1.50;0.63;;;22.40;47.10;;;;;;5110392;28;20253;-45
2021/10/07 02:49:45;;;;;;;0.73;0.57;;;22.40;47.10;;;;;;5108693;28;20193;-48
2021/10/07 02:52:17;;;;;;;1.35;0.70;;;22.40;47.40;;;;;;5085577;28;20620;-54
2021/10/07 02:54:48;;;;;;;1.20;0.80;;;22.40;47.50;;;;;;5090437;28;20670;-50
2021/10/07 02:57:18;;;;;;;1.30;0.70;;;22.50;47.50;;;;;;5106141;28;20226;-46
2021/10/07 02:59:49;;;;;;;1.08;0.60;;;22.50;47.40;;;;;;5090370;28;20259;-43
2021/10/07 03:02:19;;;;;;;3.28;0.95;;;22.50;47.30;;;;;;5091125;28;20257;-47
2021/10/07 03:04:52;;;;;;;0.95;0.70;;;22.50;47.20;;;;;;5082633;28;20285;-40
2021/10/07 03:07:24;;;;;;;2.92;0.65;;;22.60;47.40;;;;;;5086966;28;20229;-49
2021/10/07 03:09:55;;;;;;;1.63;0.80;;;22.60;47.10;;;;;;5087976;28;20222;-46
2021/10/07 03:12:25;;;;;;;1.75;0.70;;;22.60;47.30;;;;;;5087498;28;20257;-47
2021/10/07 03:14:55;;;;;;;2.85;1.10;;;22.60;47.30;;;;;;5086964;28;20244;-49
2021/10/07 03:17:26;;;;;;;0.75;0.75;;;22.60;47.20;;;;;;5110887;28;20201;-47
2021/10/07 03:19:56;;;;;;;1.10;0.80;;;22.60;47.00;;;;;;5105383;28;20228;-48
2021/10/07 03:22:29;;;;;;;1.08;0.70;;;22.60;46.70;;;;;;5070085;28;20249;-46
2021/10/07 03:24:59;;;;;;;0.85;0.70;;;22.60;47.10;;;;;;5076759;28;20193;-49
2021/10/07 03:27:29;;;;;;;0.95;0.65;;;22.60;46.90;;;;;;5109940;28;20559;-44
2021/10/07 03:30:00;;;;;;;1.77;0.98;;;22.60;47.00;;;;;;5096634;28;20569;-45
2021/10/07 03:32:30;;;;;;;1.23;0.77;;;22.60;47.00;;;;;;5088535;28;20741;-42
2021/10/07 03:35:01;;;;;;;1.50;0.70;;;22.60;47.30;;;;;;5091057;28;20236;-40
2021/10/07 03:37:33;;;;;;;1.92;0.90;;;22.60;46.70;;;;;;5101254;28;20248;-44
2021/10/07 03:40:03;;;;;;;1.27;0.70;;;22.60;46.50;;;;;;5088944;28;20628;-43
2021/10/07 03:42:34;;;;;;;0.80;0.60;;;22.70;46.90;;;;;;5091401;28;20250;-47
2021/10/07 03:45:04;;;;;;;1.23;0.70;;;22.70;47.30;;;;;;5094664;28;20186;-50
2021/10/07 03:47:35;;;;;;;2.25;1.08;;;22.70;47.00;;;;;;5108871;28;20253;-50
2021/10/07 03:50:06;;;;;;;0.88;0.77;;;22.70;47.00;;;;;;5090245;28;20230;-55
2021/10/07 03:52:38;;;;;;;1.35;0.70;;;22.70;46.90;;;;;;5093208;28;20626;-51
2021/10/07 03:55:09;;;;;;;1.02;0.45;;;22.70;47.00;;;;;;5097329;28;20631;-50
2021/10/07 03:57:39;;;;;;;1.27;0.80;;;22.70;46.70;;;;;;5092044;28;20283;-55
2021/10/07 04:00:11;;;;;;;1.88;0.70;;;22.70;46.70;;;;;;5090897;28;20233;-49
2021/10/07 04:02:41;;;;;;;1.98;0.70;;;22.70;46.90;;;;;;5091776;28;21116;-47
2021/10/07 04:05:12;;;;;;;1.52;0.90;;;22.70;46.90;;;;;;5095585;28;20708;-53
2021/10/07 04:07:44;;;;;;;1.90;0.95;;;22.70;46.90;;;;;;5113602;28;20656;-57
2021/10/07 04:10:14;;;;;;;1.17;0.82;;;22.80;46.70;;;;;;5092732;28;20234;-49
2021/10/07 04:12:45;;;;;;;2.38;0.60;;;22.80;47.00;;;;;;5091607;28;20249;-56
2021/10/07 04:15:15;;;;;;;2.28;1.00;;;22.80;46.80;;;;;;5098364;28;20248;-49
2021/10/07 04:17:46;;;;;;;0.95;0.60;;;22.80;46.50;;;;;;5113734;28;20225;-50
2021/10/07 04:20:16;;;;;;;1.55;0.77;;;22.80;46.90;;;;;;5113912;28;20232;-48
2021/10/07 04:22:48;;;;;;;1.95;0.80;;;22.80;47.30;;;;;;5101965;28;20275;-48
2021/10/07 04:25:19;;;;;;;1.38;0.70;;;22.80;47.30;;;;;;5098957;28;20358;-55
2021/10/07 04:27:55;;;;;;;1.20;0.90;;;22.80;47.30;;;;;;5103500;28;20245;-53
2021/10/07 04:30:26;;;;;;;1.83;0.80;;;22.80;47.30;;;;;;5076336;28;20249;-57
2021/10/07 04:32:56;;;;;;;2.42;0.90;;;22.80;47.20;;;;;;5072314;28;20215;-55
2021/10/07 04:35:27;;;;;;;1.70;0.80;;;22.90;47.10;;;;;;5078456;28;20201;-52
2021/10/07 04:37:59;;;;;;;1.60;0.80;;;22.90;47.30;;;;;;5092613;28;20296;-53
2021/10/07 04:40:30;;;;;;;2.67;1.00;;;22.90;47.60;;;;;;5091181;28;20379;-53
2021/10/07 04:43:00;;;;;;;3.55;0.80;;;22.90;47.70;;;;;;5091163;28;20758;-52
2021/10/07 04:45:31;;;;;;;0.93;0.57;;;22.90;47.70;;;;;;5099791;28;20228;-59
2021/10/07 04:48:01;;;;;;;1.58;0.80;;;22.90;47.50;;;;;;5113402;28;20320;-50
2021/10/07 04:50:32;;;;;;;1.05;0.70;;;23.00;47.20;;;;;;5111853;28;20377;-49
2021/10/07 04:53:04;;;;;;;1.42;0.77;;;23.00;47.10;;;;;;5108212;28;20264;-45
2021/10/07 04:55:34;;;;;;;1.27;0.60;;;23.00;47.10;;;;;;5091303;28;20233;-44
2021/10/07 04:58:05;;;;;;;1.30;0.75;;;23.00;46.90;;;;;;5078870;28;20742;-45
2021/10/07 05:00:35;;;;;;;2.10;0.70;;;23.00;46.70;;;;;;5088256;28;21000;-58
2021/10/07 05:03:06;;;;;;;2.33;0.77;;;23.10;46.90;;;;;;5079682;28;20903;-56
2021/10/07 05:05:36;;;;;;;0.90;0.55;;;23.10;47.20;;;;;;5085017;28;20631;-50
2021/10/07 05:08:09;;;;;;;2.45;0.90;;;23.10;47.30;;;;;;5080474;28;20306;-51
2021/10/07 05:10:39;;;;;;;0.80;0.60;;;23.10;47.20;;;;;;5086453;28;20277;-45
2021/10/07 05:13:10;;;;;;;1.30;0.80;;;23.10;46.80;;;;;;5082678;28;20217;-49
2021/10/07 05:15:40;;;;;;;3.00;0.98;;;23.10;46.40;;;;;;5087106;28;20221;-58
2021/10/07 05:18:11;;;;;;;1.48;0.90;;;23.10;46.40;;;;;;5083336;28;20233;-44
2021/10/07 05:20:43;;;;;;;1.30;0.80;;;23.10;46.40;;;;;;5082681;28;20285;-51
2021/10/07 05:23:15;;;;;;;1.85;1.00;;;23.10;46.20;;;;;;5083200;28;20248;-46
2021/10/07 05:25:47;;;;;;;1.52;0.82;;;23.20;46.20;;;;;;5082917;28;20277;-45
2021/10/07 05:28:17;;;;;;;2.28;0.88;;;23.20;46.10;;;;;;5086626;28;20584;-47
2021/10/07 05:30:48;;;;;;;1.33;0.90;;;23.20;46.20;;;;;;5078355;28;20680;-47
2021/10/07 05:33:20;;;;;;;1.50;1.00;;;23.20;46.00;;;;;;5087631;28;20308;-45
2021/10/07 05:35:50;;;;;;;2.28;0.80;;;23.30;45.70;;;;;;5086174;28;20200;-52
2021/10/07 05:38:22;;;;;;;2.50;1.20;;;23.20;45.60;;;;;;5086335;28;20305;-59
2021/10/07 05:40:53;;;;;;;1.38;1.00;;;23.30;45.50;;;;;;5083172;28;20229;-56
2021/10/07 05:43:23;;;;;;;2.67;1.00;;;23.30;45.40;;;;;;5075321;28;20309;-49
2021/10/07 05:45:55;;;;;;;1.45;0.93;;;23.30;45.40;;;;;;5086724;28;20225;-52
2021/10/07 05:48:26;;;;;;;1.40;0.90;;;23.30;45.50;;;;;;5087341;28;20225;-46
2021/10/07 05:50:56;;;;;;;15.10;7.93;;;23.30;45.40;;;;;;5090492;28;20573;-55
2021/10/07 05:53:28;;;;;;;25.38;11.80;;;23.30;45.30;;;;;;5102873;28;20301;-52
2021/10/07 05:55:59;;;;;;;20.67;11.40;;;23.30;45.10;;;;;;5100751;28;20228;-43
2021/10/07 05:58:29;;;;;;;31.10;14.38;;;23.30;45.30;;;;;;5095860;28;20624;-56
2021/10/07 06:01:00;;;;;;;9.25;4.45;;;23.30;45.30;;;;;;5088460;28;20229;-41
2021/10/07 06:03:30;;;;;;;19.50;7.47;;;23.30;45.60;;;;;;5089993;28;20213;-41
2021/10/07 06:06:01;;;;;;;42.58;20.70;;;23.30;45.70;;;;;;5100084;28;20276;-48
2021/10/07 06:08:33;;;;;;;32.53;14.60;;;23.30;45.70;;;;;;5086970;28;20261;-57
2021/10/07 06:11:03;;;;;;;32.55;15.30;;;23.30;46.00;;;;;;5089148;28;20226;-56
2021/10/07 06:13:34;;;;;;;36.00;15.10;;;23.30;46.20;;;;;;5089147;28;20283;-55
2021/10/07 06:16:04;;;;;;;29.90;14.45;;;23.30;46.30;;;;;;5095081;28;20225;-56
2021/10/07 06:18:35;;;;;;;27.67;13.82;;;23.30;46.40;;;;;;5098723;28;20225;-51
2021/10/07 06:21:05;;;;;;;25.98;12.93;;;23.30;46.70;;;;;;5090848;28;20554;-54
2021/10/07 06:23:41;;;;;;;22.10;11.45;;;23.30;46.90;;;;;;5089262;28;20296;-51
2021/10/07 06:26:11;;;;;;;26.40;11.20;;;23.40;47.10;;;;;;5091948;28;20209;-57
2021/10/07 06:28:42;;;;;;;22.02;11.43;;;23.40;47.10;;;;;;5079323;28;20705;-52
2021/10/07 06:31:12;;;;;;;19.38;10.05;;;23.40;47.30;;;;;;5079761;28;20191;-56
2021/10/07 06:33:42;;;;;;;20.60;10.00;;;23.40;47.40;;;;;;5074804;28;20233;-48
2021/10/07 06:36:13;;;;;;;15.18;8.32;;;23.40;47.60;;;;;;5103066;28;20228;-56
2021/10/07 06:38:45;;;;;;;14.73;8.27;;;23.40;47.60;;;;;;5080866;28;20679;-56
2021/10/07 06:41:17;;;;;;;15.32;8.02;;;23.40;47.70;;;;;;5084298;28;20202;-54
2021/10/07 06:43:47;;;;;;;14.85;7.57;;;23.40;47.70;;;;;;5102846;28;20605;-53
2021/10/07 06:46:18;;;;;;;12.90;7.22;;;23.40;47.70;;;;;;5104234;28;20212;-54
2021/10/07 06:48:49;;;;;;;15.82;7.50;;;23.40;47.70;;;;;;5084165;28;20304;-56
2021/10/07 06:51:19;;;;;;;16.48;7.72;;;23.40;47.80;;;;;;5086686;28;20226;-55
2021/10/07 06:53:53;;;;;;;14.75;7.60;;;23.40;47.90;;;;;;5096404;28;20281;-56
2021/10/07 06:56:24;;;;;;;16.33;7.30;;;23.30;47.90;;;;;;5103787;28;20193;-53
2021/10/07 06:58:54;;;;;;;13.98;7.43;;;23.30;47.90;;;;;;5088710;28;20245;-52
2021/10/07 07:01:25;;;;;;;11.50;6.60;;;23.30;47.80;;;;;;5091752;28;20248;-51
2021/10/07 07:03:55;;;;;;;11.20;6.85;;;23.30;47.90;;;;;;5110742;28;20276;-47
2021/10/07 07:06:26;;;;;;;14.20;6.95;;;23.30;48.00;;;;;;5111268;28;20232;-54
2021/10/07 07:09:00;;;;;;;12.50;6.45;;;23.30;48.00;;;;;;5111006;28;20253;-50
2021/10/07 07:11:31;;;;;;;13.27;7.35;;;23.30;48.20;;;;;;5110862;28;20193;-48
2021/10/07 07:14:02;;;;;;;14.05;6.82;;;23.30;48.20;;;;;;5110967;28;20233;-50
2021/10/07 07:16:32;;;;;;;12.57;6.80;;;23.30;48.30;;;;;;5106762;28;20199;-56
2021/10/07 07:19:03;;;;;;;14.02;6.63;;;23.20;48.40;;;;;;5085037;28;20240;-50
2021/10/07 07:21:33;;;;;;;11.68;6.13;;;23.20;48.40;;;;;;5094984;28;20249;-54
2021/10/07 07:24:06;;;;;;;10.55;6.03;;;23.20;48.50;;;;;;5094860;28;20259;-56
2021/10/07 07:26:37;;;;;;;9.68;6.03;;;23.20;48.50;;;;;;5095009;28;20232;-49
2021/10/07 07:29:07;;;;;;;9.95;6.10;;;23.20;48.50;;;;;;5094832;28;20228;-53
2021/10/07 07:31:38;;;;;;;10.30;6.15;;;23.20;48.60;;;;;;5094394;28;20260;-47
2021/10/07 07:34:08;;;;;;;12.65;6.88;;;23.20;48.70;;;;;;5094796;28;20244;-53
2021/10/07 07:36:39;;;;;;;12.60;6.15;;;23.20;48.70;;;;;;5094524;28;20217;-54
2021/10/07 07:39:11;;;;;;;11.43;5.68;;;23.20;48.70;;;;;;5094000;28;20206;-45
2021/10/07 07:41:41;;;;;;;11.52;6.07;;;23.20;48.60;;;;;;5093378;28;20246;-54
2021/10/07 07:44:12;;;;;;;10.90;5.95;;;23.10;48.50;;;;;;5094233;28;20241;-54
2021/10/07 07:46:42;;;;;;;9.70;5.60;;;23.10;48.50;;;;;;5086777;28;20238;-56
2021/10/07 07:49:13;;;;;;;11.45;5.00;;;23.10;48.60;;;;;;5090879;28;20268;-53
2021/10/07 07:51:43;;;;;;;10.15;5.82;;;23.10;48.60;;;;;;5094343;28;20214;-56
2021/10/07 07:54:15;;;;;;;9.40;5.57;;;23.00;48.70;;;;;;5094132;28;20238;-56
2021/10/07 07:56:47;;;;;;;10.38;6.07;;;23.00;48.80;;;;;;5093369;28;20234;-48
2021/10/07 07:59:17;;;;;;;8.05;5.22;;;23.00;48.90;;;;;;5093808;28;20221;-51
2021/10/07 08:01:47;;;;;;;8.48;5.13;;;23.00;48.90;;;;;;5093572;28;20245;-55
2021/10/07 08:04:18;;;;;;;8.65;5.32;;;23.00;49.00;;;;;;5093836;28;20226;-53
2021/10/07 08:06:48;;;;;;;8.55;5.10;;;23.00;49.00;;;;;;5094028;28;20233;-54
2021/10/07 08:09:22;;;;;;;7.80;5.15;;;22.90;49.00;;;;;;5093820;28;20222;-53
2021/10/07 08:11:53;;;;;;;7.78;4.97;;;22.90;49.10;;;;;;5092931;28;20246;-53
2021/10/07 08:14:23;;;;;;;8.65;5.32;;;22.90;49.20;;;;;;5087842;28;20213;-57
2021/10/07 08:16:54;;;;;;;9.35;5.05;;;22.90;49.10;;;;;;5088577;28;20280;-54
2021/10/07 08:19:24;;;;;;;7.47;5.05;;;22.90;49.10;;;;;;5075911;28;20194;-52
2021/10/07 08:21:55;;;;;;;10.60;5.43;;;22.90;49.00;;;;;;5091013;28;20214;-53
2021/10/07 08:24:27;;;;;;;7.30;4.93;;;22.90;49.10;;;;;;5090299;28;20225;-48
2021/10/07 08:26:57;;;;;;;8.93;4.75;;;22.80;49.00;;;;;;5089514;28;20232;-52
2021/10/07 08:29:28;;;;;;;6.60;4.32;;;22.80;49.00;;;;;;5073936;28;20281;-54
2021/10/07 08:31:58;;;;;;;10.20;4.50;;;22.80;49.20;;;;;;5085639;28;20257;-51
2021/10/07 08:34:29;;;;;;;7.38;3.90;;;22.80;49.70;;;;;;5096117;28;20285;-46
2021/10/07 08:36:59;;;;;;;7.45;3.50;;;22.80;50.30;;;;;;5100848;28;20281;-50
2021/10/07 08:39:31;;;;;;;9.00;3.65;;;22.80;50.80;;;;;;5074300;28;20740;-48
2021/10/07 08:42:02;;;;;;;5.22;3.17;;;22.80;50.90;;;;;;5100863;28;20313;-56
2021/10/07 08:44:32;;;;;;;9.43;3.55;;;22.80;50.90;;;;;;5093378;28;20282;-42
2021/10/07 08:47:03;;;;;;;5.53;3.50;;;22.80;50.90;;;;;;5090024;28;20280;-56
2021/10/07 08:49:37;;;;;;;9.35;3.75;;;22.70;50.90;;;;;;5108264;28;20334;-50
2021/10/07 08:52:08;;;;;;;7.47;3.65;;;22.80;50.90;;;;;;5089475;28;20220;-52
2021/10/07 08:54:41;;;;;;;6.07;3.53;;;22.70;50.90;;;;;;5090698;28;20281;-42
2021/10/07 08:57:11;;;;;;;7.57;3.47;;;22.70;50.80;;;;;;5089804;28;20234;-55
2021/10/07 08:59:42;;;;;;;5.68;3.08;;;22.70;50.70;;;;;;5080701;28;20260;-53
2021/10/07 09:02:16;;;;;;;6.45;3.58;;;22.70;50.70;;;;;;5089483;28;20297;-54
2021/10/07 09:04:46;;;;;;;8.63;3.55;;;22.70;50.60;;;;;;5087363;28;20221;-57
2021/10/07 09:07:16;;;;;;;4.85;2.95;;;22.60;50.50;;;;;;5089562;28;20224;-57
2021/10/07 09:09:49;;;;;;;5.32;3.25;;;22.60;50.50;;;;;;5098895;28;20248;-51
2021/10/07 09:12:20;;;;;;;6.57;3.00;;;22.60;50.40;;;;;;5098886;28;20669;-53
2021/10/07 09:14:51;;;;;;;7.13;3.38;;;22.60;50.40;;;;;;5090659;28;20807;-50
2021/10/07 09:17:22;;;;;;;5.07;3.00;;;22.60;50.40;;;;;;5090017;28;20198;-58
2021/10/07 09:19:52;;;;;;;3.65;2.60;;;22.50;50.30;;;;;;5086838;28;20235;-46
2021/10/07 09:22:23;;;;;;;8.05;3.33;;;22.50;50.40;;;;;;5102747;28;20237;-55
2021/10/07 09:24:55;;;;;;;5.18;3.40;;;22.50;50.40;;;;;;5085655;28;20233;-53
2021/10/07 09:27:26;;;;;;;6.20;3.53;;;22.50;50.50;;;;;;5083390;28;20698;-51
2021/10/07 09:29:57;;;;;;;6.40;3.35;;;22.50;50.50;;;;;;5072588;28;20285;-45
2021/10/07 09:32:29;;;;;;;6.25;3.08;;;22.40;50.50;;;;;;5080254;28;20254;-53
2021/10/07 09:35:00;;;;;;;4.03;2.63;;;22.40;50.50;;;;;;5091598;28;20229;-57
2021/10/07 09:37:32;;;;;;;5.72;2.92;;;22.40;50.50;;;;;;5088583;28;20225;-58
2021/10/07 09:40:06;;;;;;;4.47;2.58;;;22.40;50.50;;;;;;5089649;28;20234;-56
2021/10/07 09:42:37;;;;;;;5.32;3.28;;;22.40;50.50;;;;;;5091072;28;20676;-54
2021/10/07 09:45:13;;;;;;;4.25;2.85;;;22.30;50.40;;;;;;5089518;28;20281;-51
2021/10/07 09:47:44;;;;;;;6.70;3.13;;;22.40;50.40;;;;;;5086528;28;20642;-51
2021/10/07 09:50:22;;;;;;;4.63;2.80;;;22.30;50.30;;;;;;5088981;28;20301;-50
2021/10/07 09:52:54;;;;;;;4.30;2.80;;;22.30;50.40;;;;;;5091387;28;20271;-50
2021/10/07 09:55:27;;;;;;;5.95;3.05;;;22.30;50.40;;;;;;5087615;28;20285;-50
2021/10/07 09:57:59;;;;;;;4.80;2.67;;;22.30;50.40;;;;;;5088515;28;20662;-50
2021/10/07 10:00:31;;;;;;;4.75;3.00;;;22.20;50.40;;;;;;5090138;28;20236;-53
2021/10/07 10:03:03;;;;;;;4.07;3.00;;;22.20;50.40;;;;;;5086656;28;20300;-44
2021/10/07 10:05:34;;;;;;;3.97;2.70;;;22.20;50.50;;;;;;5092132;28;20714;-52
2021/10/07 10:08:05;;;;;;;5.38;3.05;;;22.10;50.50;;;;;;5087006;28;20693;-56
2021/10/07 10:10:37;;;;;;;3.85;2.72;;;22.10;50.50;;;;;;5092295;28;20673;-52
2021/10/07 10:13:07;;;;;;;5.13;2.85;;;22.10;50.50;;;;;;5090965;28;20246;-58
2021/10/07 10:15:38;;;;;;;3.78;2.50;;;22.10;50.50;;;;;;5092017;28;20640;-48
2021/10/07 10:18:10;;;;;;;5.93;2.83;;;22.10;50.50;;;;;;5087660;28;20678;-48
2021/10/07 10:20:41;;;;;;;5.03;3.03;;;22.10;50.50;;;;;;5092380;28;20674;-53
2021/10/07 10:23:12;;;;;;;4.47;2.40;;;22.00;50.50;;;;;;5090291;28;20245;-46
2021/10/07 10:25:59;;;;;;;4.90;2.88;;;22.00;50.50;;;;;;5083874;28;20608;-51
2021/10/07 10:28:33;;;;;;;5.05;2.80;;;22.00;50.50;;;;;;5086832;28;20313;-49
2021/10/07 10:31:07;;;;;;;4.60;2.85;;;22.00;50.50;;;;;;5082733;28;20225;-52
2021/10/07 10:33:38;;;;;;;4.32;2.88;;;22.00;50.50;;;;;;5085902;28;20242;-55
2021/10/07 10:36:32;;;;;;;5.63;2.95;;;22.00;50.50;;;;;;5082524;28;20321;-52
2021/10/07 10:39:04;;;;;;;5.20;2.90;;;21.90;50.50;;;;;;5077792;28;20553;-52
2021/10/07 10:41:53;;;;;;;5.10;2.78;;;21.90;50.50;;;;;;5087990;28;20253;-45
2021/10/07 10:44:44;;;;;;;6.78;3.38;;;21.90;50.50;;;;;;5091197;28;20228;-50
2021/10/07 10:47:25;;;;;;;5.47;2.80;;;21.90;50.50;;;;;;5087609;28;20739;-44
2021/10/07 10:50:02;;;;;;;4.82;3.03;;;21.80;50.50;;;;;;5086358;28;20245;-50
2021/10/07 10:52:33;;;;;;;6.13;2.90;;;21.80;50.50;;;;;;5087751;28;20249;-51
2021/10/07 10:55:05;;;;;;;5.05;2.72;;;21.80;50.50;;;;;;5086680;28;20198;-52
2021/10/07 10:57:38;;;;;;;4.10;2.53;;;21.80;50.60;;;;;;5087157;28;20317;-51
2021/10/07 11:00:14;;;;;;;3.83;2.65;;;21.80;50.60;;;;;;5084852;28;20853;-57
2021/10/07 11:02:44;;;;;;;3.58;2.70;;;21.70;50.50;;;;;;5076304;28;20738;-50
2021/10/07 11:05:22;;;;;;;5.38;2.75;;;21.80;50.60;;;;;;5104199;28;20587;-44
2021/10/07 11:08:16;;;;;;;5.43;2.75;;;21.70;50.60;;;;;;5083414;28;20201;-51
2021/10/07 11:10:47;;;;;;;4.82;2.85;;;21.70;50.50;;;;;;5081896;28;20195;-47
2021/10/07 11:13:19;;;;;;;3.95;2.72;;;21.70;50.60;;;;;;5077785;28;20305;-48
2021/10/07 11:15:52;;;;;;;4.57;2.53;;;21.70;50.60;;;;;;5077758;28;20606;-53
2021/10/07 11:18:23;;;;;;;4.57;2.88;;;21.60;50.60;;;;;;5080041;28;20194;-49
2021/10/07 11:20:58;;;;;;;3.67;2.65;;;21.60;51.20;;;;;;5087396;28;20241;-56
2021/10/07 11:23:32;;;;;;;3.78;2.50;;;21.60;50.60;;;;;;5087743;28;20248;-49
2021/10/07 11:26:03;;;;;;;4.10;2.42;;;21.60;50.70;;;;;;5022345;28;55606;-56
2021/10/07 11:28:35;;;;;;;4.22;2.78;;;21.60;51.30;;;;;;4899574;28;56215;-47
2021/10/07 11:31:09;;;;;;;3.83;2.60;;;21.50;50.70;;;;;;5016259;28;20293;-55
2021/10/07 11:33:39;;;;;;;4.80;2.92;;;21.50;50.70;;;;;;4984764;28;20283;-47
2021/10/07 11:36:12;;;;;;;4.38;2.60;;;21.50;50.70;;;;;;4995631;28;59864;-51
2021/10/07 11:38:43;;;;;;;3.80;2.60;;;21.50;50.70;;;;;;5028430;28;20261;-50
2021/10/07 11:41:15;;;;;;;4.80;2.70;;;21.50;50.70;;;;;;5027642;28;20624;-50
2021/10/07 11:43:48;;;;;;;4.18;2.20;;;21.40;50.70;;;;;;5024773;28;20895;-46
2021/10/07 11:46:20;;;;;;;5.97;2.55;;;21.50;50.70;;;;;;5012311;28;20291;-51
2021/10/07 11:48:52;;;;;;;3.63;2.42;;;21.40;50.70;;;;;;5039865;28;20315;-54
2021/10/07 11:51:24;;;;;;;4.05;2.20;;;21.40;50.70;;;;;;5020368;28;20288;-49
2021/10/07 11:54:02;;;;;;;3.88;2.42;;;21.40;50.80;;;;;;5023250;28;20203;-44
2021/10/07 11:56:32;;;;;;;5.07;2.78;;;21.40;50.80;;;;;;5042182;28;20230;-53
2021/10/07 11:59:06;;;;;;;3.85;2.33;;;21.40;50.80;;;;;;5045074;28;20278;-52
2021/10/07 12:01:38;;;;;;;3.72;2.60;;;21.30;50.70;;;;;;5021645;28;20219;-54
2021/10/07 12:04:09;;;;;;;3.75;2.72;;;21.30;50.80;;;;;;5036374;28;20283;-52
2021/10/07 12:06:40;;;;;;;5.60;2.60;;;21.30;50.80;;;;;;5019033;28;20232;-55
2021/10/07 12:09:16;;;;;;;3.70;2.55;;;21.30;50.80;;;;;;5031624;28;20311;-49
2021/10/07 12:11:47;;;;;;;3.10;2.28;;;21.30;50.90;;;;;;5032083;28;20251;-50
2021/10/07 12:14:19;;;;;;;4.35;2.17;;;21.20;50.90;;;;;;5032054;28;20283;-51
2021/10/07 12:16:50;;;;;;;3.25;2.30;;;21.20;50.90;;;;;;5032608;28;20604;-54
2021/10/07 12:19:24;;;;;;;3.67;2.28;;;21.20;50.90;;;;;;5030800;28;20262;-57
2021/10/07 12:22:01;;;;;;;3.83;2.20;;;21.20;50.90;;;;;;5035060;28;20235;-53
2021/10/07 12:24:32;;;;;;;3.65;2.25;;;21.20;50.90;;;;;;5036606;28;20202;-55
2021/10/07 12:27:03;;;;;;;4.35;2.50;;;21.10;50.80;;;;;;5018920;28;20192;-47
2021/10/07 12:29:36;;;;;;;3.10;2.20;;;21.10;50.80;;;;;;5027353;28;20641;-42
2021/10/07 12:32:08;;;;;;;3.85;2.38;;;21.10;50.90;;;;;;5028242;28;20254;-42
2021/10/07 12:34:39;;;;;;;2.30;1.90;;;21.10;50.90;;;;;;5025348;28;20228;-46
2021/10/07 12:37:11;;;;;;;3.88;2.45;;;21.10;50.90;;;;;;5026687;28;20231;-46
2021/10/07 12:39:43;;;;;;;2.75;2.00;;;21.10;50.90;;;;;;5026149;28;20311;-54
2021/10/07 12:42:15;;;;;;;3.92;2.35;;;21.10;50.90;;;;;;5025479;28;20251;-48
2021/10/07 12:44:53;;;;;;;2.67;1.85;;;21.00;50.90;;;;;;5023911;28;20600;-47
2021/10/07 12:47:27;;;;;;;3.30;2.50;;;21.00;51.00;;;;;;5020456;28;20291;-50
2021/10/07 12:49:58;;;;;;;2.50;2.05;;;21.00;51.00;;;;;;5026453;28;20225;-47
2021/10/07 12:52:30;;;;;;;4.10;2.33;;;21.00;51.00;;;;;;5019595;28;20270;-51
2021/10/07 12:55:02;;;;;;;2.83;2.28;;;21.00;51.00;;;;;;5048955;28;20199;-42
2021/10/07 12:57:40;;;;;;;2.35;1.95;;;20.90;51.00;;;;;;5030710;28;20232;-49
2021/10/07 13:00:21;;;;;;;3.50;1.80;;;20.90;51.00;;;;;;5032180;28;20287;-54
2021/10/07 13:02:52;;;;;;;3.42;2.35;;;20.90;51.10;;;;;;5045577;28;20254;-54
2021/10/07 13:05:25;;;;;;;2.92;2.20;;;20.90;51.10;;;;;;5030443;28;20231;-50
2021/10/07 13:07:56;;;;;;;2.42;1.80;;;20.90;51.10;;;;;;5030973;28;20707;-52
2021/10/07 13:10:27;;;;;;;2.47;2.00;;;20.80;51.10;;;;;;5029862;28;20347;-42